createdAt,value
2019-01-18T00:00:50.991Z,0
2019-01-18T00:02:00.687Z,0
2019-01-18T00:03:10.371Z,0
2019-01-18T00:04:20.314Z,0
2019-01-18T00:05:30.262Z,0
2019-01-18T00:06:40.211Z,0
2019-01-18T00:07:49.888Z,0
2019-01-18T00:08:59.571Z,0
2019-01-18T00:10:09.258Z,0
2019-01-18T00:11:18.944Z,0
2019-01-18T00:12:28.887Z,0
2019-01-18T00:13:38.062Z,0
2019-01-18T00:14:47.494Z,0
2019-01-18T00:15:57.158Z,0
2019-01-18T00:17:06.858Z,0
2019-01-18T00:18:16.556Z,0
2019-01-18T00:19:26.243Z,0
2019-01-18T00:20:35.939Z,0
2019-01-18T00:21:45.901Z,0
2019-01-18T00:22:55.350Z,0
2019-01-18T00:24:05.291Z,0
2019-01-18T00:25:15.239Z,0
2019-01-18T00:26:25.168Z,0
2019-01-18T00:27:34.844Z,0
2019-01-18T00:28:44.524Z,0
2019-01-18T00:29:54.456Z,0
2019-01-18T00:31:03.903Z,0
2019-01-18T00:32:13.833Z,0
2019-01-18T00:33:23.764Z,0
2019-01-18T00:34:33.438Z,0
2019-01-18T00:35:43.130Z,0
2019-01-18T00:36:53.068Z,0
2019-01-18T00:38:03.006Z,0
2019-01-18T00:39:12.926Z,0
2019-01-18T00:40:22.369Z,0
2019-01-18T00:41:32.050Z,0
2019-01-18T00:42:42.040Z,0
2019-01-18T00:43:51.719Z,0
2019-01-18T00:45:01.643Z,0
2019-01-18T00:46:11.330Z,0
2019-01-18T00:47:20.749Z,0
2019-01-18T00:48:30.682Z,0
2019-01-18T00:49:40.363Z,0
2019-01-18T00:50:50.058Z,0
2019-01-18T00:51:59.997Z,0
2019-01-18T00:53:09.669Z,0
2019-01-18T00:54:19.359Z,0
2019-01-18T00:55:29.030Z,0
2019-01-18T00:56:38.716Z,0
2019-01-18T00:57:48.402Z,0
2019-01-18T00:58:58.347Z,0
2019-01-18T01:00:08.288Z,0
2019-01-18T01:01:18.217Z,0
2019-01-18T01:02:27.901Z,0
2019-01-18T01:03:37.844Z,0
2019-01-18T01:04:47.770Z,0
2019-01-18T01:05:56.939Z,0
2019-01-18T01:07:06.620Z,0
2019-01-18T01:08:16.302Z,0
2019-01-18T01:09:25.994Z,0
2019-01-18T01:10:35.935Z,0
2019-01-18T01:11:45.626Z,0
2019-01-18T01:12:55.572Z,0
2019-01-18T01:14:05.492Z,0
2019-01-18T01:15:15.411Z,0
2019-01-18T01:16:25.088Z,0
2019-01-18T01:17:35.007Z,0
2019-01-18T01:18:44.940Z,0
2019-01-18T01:19:54.884Z,0
2019-01-18T01:21:04.580Z,0
2019-01-18T01:22:14.017Z,0
2019-01-18T01:23:23.943Z,0
2019-01-18T01:24:33.883Z,0
2019-01-18T01:25:43.319Z,0
2019-01-18T01:26:52.998Z,0
2019-01-18T01:28:02.672Z,0
2019-01-18T01:29:12.623Z,0
2019-01-18T01:30:22.567Z,0
2019-01-18T01:31:32.250Z,0
2019-01-18T01:32:42.173Z,0
2019-01-18T01:33:51.888Z,0
2019-01-18T01:35:01.581Z,0
2019-01-18T01:36:11.513Z,0
2019-01-18T01:37:20.683Z,0
2019-01-18T01:38:30.399Z,0
2019-01-18T01:39:40.324Z,0
2019-01-18T01:40:50.001Z,0
2019-01-18T01:41:59.685Z,0
2019-01-18T01:43:09.639Z,0
2019-01-18T01:44:19.316Z,0
2019-01-18T01:45:29.007Z,0
2019-01-18T01:46:38.674Z,0
2019-01-18T01:47:48.595Z,0
2019-01-18T01:48:58.523Z,0
2019-01-18T01:50:08.459Z,0
2019-01-18T01:51:18.177Z,0
2019-01-18T01:52:27.859Z,0
2019-01-18T01:53:37.546Z,0
2019-01-18T01:54:47.475Z,0
2019-01-18T01:55:57.393Z,0
2019-01-18T01:57:07.056Z,0
2019-01-18T01:58:16.762Z,0
2019-01-18T01:59:26.453Z,0
2019-01-18T02:00:36.390Z,0
2019-01-18T02:01:46.325Z,0
2019-01-18T02:02:56.282Z,0
2019-01-18T02:04:06.057Z,0
2019-01-18T02:05:16.012Z,0
2019-01-18T02:06:25.945Z,0
2019-01-18T02:07:35.638Z,0
2019-01-18T02:08:45.563Z,0
2019-01-18T02:09:55.241Z,0
2019-01-18T02:11:04.928Z,0
2019-01-18T02:12:14.613Z,0
2019-01-18T02:13:24.291Z,0
2019-01-18T02:14:34.229Z,0
2019-01-18T02:15:43.919Z,0
2019-01-18T02:16:53.855Z,0
2019-01-18T02:18:03.541Z,0
2019-01-18T02:19:13.241Z,0
2019-01-18T02:20:23.189Z,0
2019-01-18T02:21:33.143Z,0
2019-01-18T02:22:42.843Z,0
2019-01-18T02:23:52.535Z,0
2019-01-18T02:25:02.220Z,0
2019-01-18T02:26:12.150Z,0
2019-01-18T02:27:22.067Z,0
2019-01-18T02:28:31.757Z,0
2019-01-18T02:29:41.849Z,0
2019-01-18T02:30:51.280Z,0
2019-01-18T02:32:00.983Z,0
2019-01-18T02:33:10.915Z,0
2019-01-18T02:34:20.617Z,0
2019-01-18T02:35:30.575Z,0
2019-01-18T02:36:40.526Z,0
2019-01-18T02:37:50.203Z,0
2019-01-18T02:38:59.668Z,0
2019-01-18T02:40:09.620Z,0
2019-01-18T02:41:19.567Z,0
2019-01-18T02:42:29.518Z,0
2019-01-18T02:43:39.482Z,0
2019-01-18T02:44:49.201Z,0
2019-01-18T02:45:59.146Z,0
2019-01-18T02:47:09.105Z,0
2019-01-18T02:48:19.053Z,0
2019-01-18T02:49:28.996Z,0
2019-01-18T02:50:38.686Z,0
2019-01-18T02:51:48.381Z,0
2019-01-18T02:52:58.117Z,0
2019-01-18T02:54:08.054Z,0
2019-01-18T02:55:18.007Z,0
2019-01-18T02:56:27.703Z,0
2019-01-18T02:57:37.689Z,0
2019-01-18T02:58:47.413Z,0
2019-01-18T03:00:04.375Z,0
2019-01-18T03:01:14.299Z,0
2019-01-18T03:02:24.013Z,0
2019-01-18T03:03:33.697Z,0
2019-01-18T03:04:43.375Z,0
2019-01-18T03:05:53.075Z,0
2019-01-18T03:07:02.742Z,0
2019-01-18T03:08:12.422Z,0
2019-01-18T03:09:22.367Z,0
2019-01-18T03:10:31.798Z,0
2019-01-18T03:11:41.488Z,0
2019-01-18T03:12:51.451Z,0
2019-01-18T03:14:01.144Z,0
2019-01-18T03:15:11.086Z,0
2019-01-18T03:16:21.032Z,0
2019-01-18T03:17:30.975Z,0
2019-01-18T03:18:40.911Z,0
2019-01-18T03:19:50.091Z,0
2019-01-18T03:21:00.039Z,0
2019-01-18T03:22:10.002Z,0
2019-01-18T03:23:19.946Z,0
2019-01-18T03:24:29.914Z,0
2019-01-18T03:25:39.851Z,0
2019-01-18T03:26:49.804Z,0
2019-01-18T03:27:59.493Z,0
2019-01-18T03:29:09.427Z,0
2019-01-18T03:30:26.488Z,0
2019-01-18T03:31:36.230Z,0
2019-01-18T03:32:46.191Z,0
2019-01-18T03:33:56.049Z,0
2019-01-18T03:35:05.982Z,0
2019-01-18T03:36:15.917Z,0
2019-01-18T03:37:25.912Z,0
2019-01-18T03:38:35.620Z,0
2019-01-18T03:39:45.559Z,0
2019-01-18T03:40:55.510Z,0
2019-01-18T03:42:05.449Z,0
2019-01-18T03:43:15.403Z,0
2019-01-18T03:44:25.364Z,0
2019-01-18T03:45:35.294Z,0
2019-01-18T03:46:45.229Z,0
2019-01-18T03:47:54.902Z,0
2019-01-18T03:49:04.835Z,0
2019-01-18T03:50:14.778Z,0
2019-01-18T03:51:24.468Z,0
2019-01-18T03:52:33.911Z,0
2019-01-18T03:53:43.843Z,0
2019-01-18T03:54:53.775Z,0
2019-01-18T03:56:03.719Z,0
2019-01-18T03:57:13.403Z,0
2019-01-18T03:58:23.109Z,0
2019-01-18T03:59:33.058Z,0
2019-01-18T04:00:42.737Z,0
2019-01-18T04:01:52.685Z,0
2019-01-18T04:03:02.625Z,0
2019-01-18T04:04:12.507Z,0
2019-01-18T04:05:22.201Z,0
2019-01-18T04:06:31.896Z,0
2019-01-18T04:07:41.834Z,0
2019-01-18T04:08:51.779Z,0
2019-01-18T04:10:01.733Z,0
2019-01-18T04:11:11.487Z,0
2019-01-18T04:12:21.442Z,0
2019-01-18T04:13:30.894Z,0
2019-01-18T04:14:40.838Z,0
2019-01-18T04:15:50.792Z,0
2019-01-18T04:17:00.714Z,0
2019-01-18T04:18:10.420Z,0
2019-01-18T04:19:20.376Z,0
2019-01-18T04:20:30.340Z,0
2019-01-18T04:21:40.286Z,0
2019-01-18T04:22:50.232Z,0
2019-01-18T04:24:00.174Z,0
2019-01-18T04:25:09.864Z,0
2019-01-18T04:26:19.788Z,0
2019-01-18T04:27:29.476Z,0
2019-01-18T04:28:39.170Z,0
2019-01-18T04:29:49.106Z,0
2019-01-18T04:30:58.815Z,0
2019-01-18T04:32:08.000Z,0
2019-01-18T04:33:17.978Z,0
2019-01-18T04:34:27.660Z,0
2019-01-18T04:35:37.587Z,0
2019-01-18T04:36:47.017Z,0
2019-01-18T04:37:56.948Z,0
2019-01-18T04:39:06.886Z,0
2019-01-18T04:40:16.562Z,0
2019-01-18T04:41:26.245Z,0
2019-01-18T04:42:36.180Z,0
2019-01-18T04:43:46.108Z,0
2019-01-18T04:44:55.795Z,0
2019-01-18T04:46:05.751Z,0
2019-01-18T04:47:15.471Z,0
2019-01-18T04:48:25.436Z,0
2019-01-18T04:49:35.415Z,0
2019-01-18T04:50:45.363Z,0
2019-01-18T04:51:55.056Z,0
2019-01-18T04:53:04.988Z,0
2019-01-18T04:54:14.936Z,0
2019-01-18T04:55:24.622Z,0
2019-01-18T04:56:34.316Z,0
2019-01-18T04:57:44.288Z,0
2019-01-18T04:58:53.975Z,0
2019-01-18T05:00:03.999Z,0
2019-01-18T05:01:13.686Z,0
2019-01-18T05:02:23.638Z,0
2019-01-18T05:03:33.572Z,0
2019-01-18T05:04:43.503Z,0
2019-01-18T05:05:53.190Z,0
2019-01-18T05:07:02.874Z,0
2019-01-18T05:08:12.548Z,0
2019-01-18T05:09:22.483Z,0
2019-01-18T05:10:32.437Z,0
2019-01-18T05:11:42.114Z,0
2019-01-18T05:12:51.587Z,0
2019-01-18T05:14:01.572Z,0
2019-01-18T05:15:11.524Z,0
2019-01-18T05:16:21.466Z,0
2019-01-18T05:17:31.398Z,0
2019-01-18T05:18:41.346Z,0
2019-01-18T05:19:51.027Z,0
2019-01-18T05:21:00.206Z,0
2019-01-18T05:22:09.914Z,0
2019-01-18T05:23:19.659Z,0
2019-01-18T05:24:29.596Z,0
2019-01-18T05:25:38.786Z,0
2019-01-18T05:26:48.720Z,0
2019-01-18T05:27:58.686Z,0
2019-01-18T05:29:08.632Z,0
2019-01-18T05:30:18.583Z,0
2019-01-18T05:31:28.636Z,0
2019-01-18T05:32:38.323Z,0
2019-01-18T05:33:48.022Z,0
2019-01-18T05:34:57.722Z,0
2019-01-18T05:36:07.555Z,0
2019-01-18T05:37:17.504Z,0
2019-01-18T05:38:27.230Z,0
2019-01-18T05:39:36.906Z,0
2019-01-18T05:40:46.380Z,0
2019-01-18T05:41:56.317Z,0
2019-01-18T05:43:05.995Z,0
2019-01-18T05:44:15.984Z,0
2019-01-18T05:45:25.692Z,0
2019-01-18T05:46:35.629Z,0
2019-01-18T05:47:45.587Z,0
2019-01-18T05:48:55.300Z,0
2019-01-18T05:50:05.026Z,0
2019-01-18T05:51:14.712Z,0
2019-01-18T05:52:24.169Z,0
2019-01-18T05:53:33.140Z,0
2019-01-18T05:54:43.085Z,0
2019-01-18T05:55:52.523Z,0
2019-01-18T05:57:02.488Z,0
2019-01-18T05:58:12.418Z,0
2019-01-18T05:59:22.104Z,0
2019-01-18T06:00:32.178Z,0
2019-01-18T06:01:42.002Z,0
2019-01-18T06:02:51.685Z,0
2019-01-18T06:04:01.611Z,0
2019-01-18T06:05:11.568Z,0
2019-01-18T06:06:21.536Z,0
2019-01-18T06:07:31.482Z,0
2019-01-18T06:08:41.469Z,0
2019-01-18T06:09:51.402Z,0
2019-01-18T06:11:01.098Z,0
2019-01-18T06:12:11.029Z,0
2019-01-18T06:13:20.973Z,0
2019-01-18T06:14:30.923Z,0
2019-01-18T06:15:40.701Z,0
2019-01-18T06:16:50.696Z,0
2019-01-18T06:18:00.627Z,0
2019-01-18T06:19:10.582Z,0
2019-01-18T06:20:20.535Z,0
2019-01-18T06:21:30.234Z,0
2019-01-18T06:22:39.934Z,0
2019-01-18T06:23:49.873Z,0
2019-01-18T06:24:59.827Z,0
2019-01-18T06:26:09.784Z,0
2019-01-18T06:27:19.756Z,0
2019-01-18T06:28:30.792Z,4
2019-01-18T06:29:40.237Z,4
2019-01-18T06:30:50.174Z,4
2019-01-18T06:31:59.599Z,0
2019-01-18T06:33:09.039Z,4
2019-01-18T06:34:19.004Z,4
2019-01-18T06:35:28.954Z,4
2019-01-18T06:36:38.899Z,8
2019-01-18T06:37:49.037Z,8
2019-01-18T06:38:59.212Z,8
2019-01-18T06:40:09.202Z,12
2019-01-18T06:41:18.914Z,12
2019-01-18T06:42:28.595Z,16
2019-01-18T06:43:38.530Z,20
2019-01-18T06:44:48.216Z,24
2019-01-18T06:45:58.146Z,28
2019-01-18T06:47:07.835Z,36
2019-01-18T06:48:17.783Z,44
2019-01-18T06:49:27.819Z,52
2019-01-18T06:50:37.744Z,60
2019-01-18T06:51:47.691Z,72
2019-01-18T06:52:57.657Z,84
2019-01-18T06:54:07.613Z,100
2019-01-18T06:55:17.554Z,116
2019-01-18T06:56:27.237Z,132
2019-01-18T06:57:37.413Z,152
2019-01-18T06:58:47.361Z,176
2019-01-18T06:59:57.519Z,200
2019-01-18T07:01:13.216Z,220
2019-01-18T07:02:23.153Z,252
2019-01-18T07:03:33.113Z,284
2019-01-18T07:04:48.590Z,324
2019-01-18T07:05:58.287Z,360
2019-01-18T07:07:08.229Z,404
2019-01-18T07:08:18.167Z,456
2019-01-18T07:09:27.849Z,504
2019-01-18T07:10:37.800Z,556
2019-01-18T07:11:47.735Z,612
2019-01-18T07:12:57.672Z,672
2019-01-18T07:14:07.617Z,740
2019-01-18T07:15:17.047Z,808
2019-01-18T07:16:26.986Z,868
2019-01-18T07:17:36.938Z,932
2019-01-18T07:18:46.872Z,1020
2019-01-18T07:19:56.613Z,1088
2019-01-18T07:21:06.054Z,1176
2019-01-18T07:22:15.755Z,1276
2019-01-18T07:23:25.457Z,1376
2019-01-18T07:24:35.648Z,1492
2019-01-18T07:25:45.591Z,1604
2019-01-18T07:26:55.571Z,1700
2019-01-18T07:28:05.540Z,1792
2019-01-18T07:29:15.529Z,1884
2019-01-18T07:30:25.487Z,1984
2019-01-18T07:31:35.435Z,2084
2019-01-18T07:32:45.396Z,2208
2019-01-18T07:33:55.127Z,2340
2019-01-18T07:35:05.085Z,2452
2019-01-18T07:36:16.143Z,2564
2019-01-18T07:37:25.839Z,2672
2019-01-18T07:38:35.801Z,2772
2019-01-18T07:39:45.507Z,2876
2019-01-18T07:40:54.989Z,2976
2019-01-18T07:42:04.726Z,3080
2019-01-18T07:43:14.415Z,3180
2019-01-18T07:44:24.395Z,3276
2019-01-18T07:45:34.097Z,3372
2019-01-18T07:46:43.310Z,3468
2019-01-18T07:47:53.359Z,3560
2019-01-18T07:49:03.319Z,3648
2019-01-18T07:50:19.720Z,3736
2019-01-18T07:51:29.931Z,3836
2019-01-18T07:52:39.883Z,3920
2019-01-18T07:53:49.583Z,4008
2019-01-18T07:54:59.528Z,4100
2019-01-18T07:56:09.271Z,4176
2019-01-18T07:57:18.960Z,4260
2019-01-18T07:58:28.909Z,4364
2019-01-18T07:59:38.871Z,4688
2019-01-18T08:00:48.560Z,5016
2019-01-18T08:01:58.509Z,5180
2019-01-18T08:03:08.446Z,5292
2019-01-18T08:04:18.409Z,5392
2019-01-18T08:05:28.343Z,5504
2019-01-18T08:06:38.325Z,5660
2019-01-18T08:07:48.399Z,5792
2019-01-18T08:08:58.381Z,5948
2019-01-18T08:10:08.357Z,6128
2019-01-18T08:11:18.063Z,6244
2019-01-18T08:12:28.016Z,6424
2019-01-18T08:13:37.967Z,6632
2019-01-18T08:14:47.956Z,6860
2019-01-18T08:15:57.707Z,7208
2019-01-18T08:17:07.417Z,7372
2019-01-18T08:18:17.363Z,7668
2019-01-18T08:19:27.057Z,8096
2019-01-18T08:20:37.044Z,8396
2019-01-18T08:21:46.979Z,8612
2019-01-18T08:22:56.419Z,8480
2019-01-18T08:24:06.135Z,8968
2019-01-18T08:25:16.033Z,9000
2019-01-18T08:26:25.984Z,9024
2019-01-18T08:27:35.792Z,9428
2019-01-18T08:28:45.469Z,9508
2019-01-18T08:29:55.979Z,9644
2019-01-18T08:31:05.409Z,10084
2019-01-18T08:32:15.340Z,10628
2019-01-18T08:33:24.780Z,10796
2019-01-18T08:34:34.713Z,11072
2019-01-18T08:35:44.399Z,11236
2019-01-18T08:36:53.841Z,11160
2019-01-18T08:38:03.779Z,11780
2019-01-18T08:39:13.485Z,12400
2019-01-18T08:40:23.193Z,12660
2019-01-18T08:41:33.145Z,12712
2019-01-18T08:42:43.099Z,12976
2019-01-18T08:43:52.822Z,13204
2019-01-18T08:45:02.782Z,14388
2019-01-18T08:46:12.773Z,14720
2019-01-18T08:47:22.717Z,14656
2019-01-18T08:48:32.662Z,15328
2019-01-18T08:49:42.634Z,15776
2019-01-18T08:50:52.087Z,16416
2019-01-18T08:52:02.033Z,16512
2019-01-18T08:53:11.478Z,16160
2019-01-18T08:54:20.918Z,16256
2019-01-18T08:55:30.402Z,17088
2019-01-18T08:56:40.126Z,17600
2019-01-18T08:57:50.080Z,18272
2019-01-18T08:59:00.038Z,18496
2019-01-18T09:00:09.761Z,18400
2019-01-18T09:01:19.731Z,19392
2019-01-18T09:02:29.435Z,20416
2019-01-18T09:03:39.386Z,20320
2019-01-18T09:04:49.088Z,20416
2019-01-18T09:05:58.815Z,21824
2019-01-18T09:07:08.783Z,22688
2019-01-18T09:08:18.765Z,23584
2019-01-18T09:09:28.729Z,23808
2019-01-18T09:10:38.699Z,23680
2019-01-18T09:11:48.665Z,25600
2019-01-18T09:12:58.651Z,25184
2019-01-18T09:14:08.641Z,24960
2019-01-18T09:15:18.618Z,25888
2019-01-18T09:16:28.316Z,26688
2019-01-18T09:17:38.281Z,26528
2019-01-18T09:18:48.245Z,26528
2019-01-18T09:19:58.225Z,27904
2019-01-18T09:21:08.176Z,28768
2019-01-18T09:22:17.876Z,29504
2019-01-18T09:23:27.352Z,29376
2019-01-18T09:24:37.329Z,29504
2019-01-18T09:25:47.049Z,30080
2019-01-18T09:26:56.762Z,31200
2019-01-18T09:28:06.977Z,31776
2019-01-18T09:29:17.555Z,32448
2019-01-18T09:30:27.308Z,32416
2019-01-18T09:31:42.367Z,33344
2019-01-18T09:32:52.349Z,34464
2019-01-18T09:34:02.301Z,33888
2019-01-18T09:35:12.274Z,34720
2019-01-18T09:36:22.273Z,36416
2019-01-18T09:37:32.234Z,36896
2019-01-18T09:38:41.980Z,36384
2019-01-18T09:39:52.389Z,36096
2019-01-18T09:41:02.349Z,36896
2019-01-18T09:42:12.081Z,37600
2019-01-18T09:43:22.025Z,39104
2019-01-18T09:44:32.012Z,39744
2019-01-18T09:45:41.479Z,39776
2019-01-18T09:46:51.447Z,40608
2019-01-18T09:48:01.147Z,41888
2019-01-18T09:49:10.879Z,42912
2019-01-18T09:50:20.586Z,41568
2019-01-18T09:51:30.566Z,41216
2019-01-18T09:52:40.360Z,41760
2019-01-18T09:53:50.089Z,44000
2019-01-18T09:55:00.051Z,44480
2019-01-18T09:56:10.130Z,44928
2019-01-18T09:57:19.825Z,46208
2019-01-18T09:58:29.773Z,46944
2019-01-18T09:59:39.718Z,48544
2019-01-18T10:00:49.421Z,49728
2019-01-18T10:01:59.375Z,50432
2019-01-18T10:03:09.343Z,50400
2019-01-18T10:04:18.873Z,52512
2019-01-18T10:05:28.839Z,53056
2019-01-18T10:06:38.538Z,51808
2019-01-18T10:07:48.566Z,51200
2019-01-18T10:08:58.294Z,51552
2019-01-18T10:10:08.019Z,49984
2019-01-18T10:11:17.737Z,53120
2019-01-18T10:12:27.434Z,52864
2019-01-18T10:13:37.179Z,52608
2019-01-18T10:14:47.238Z,51232
2019-01-18T10:15:56.445Z,53056
2019-01-18T10:17:06.161Z,55744
2019-01-18T10:18:16.113Z,56320
2019-01-18T10:19:25.811Z,56928
2019-01-18T10:20:35.536Z,56416
2019-01-18T10:21:46.633Z,56320
2019-01-18T10:22:56.436Z,56416
2019-01-18T10:24:06.404Z,55904
2019-01-18T10:25:16.407Z,56768
2019-01-18T10:26:26.098Z,59872
2019-01-18T10:27:35.814Z,60128
2019-01-18T10:28:45.773Z,57184
2019-01-18T10:29:55.728Z,59360
2019-01-18T10:31:05.682Z,60800
2019-01-18T10:32:15.131Z,60128
2019-01-18T10:33:24.831Z,62528
2019-01-18T10:34:34.776Z,60992
2019-01-18T10:35:44.723Z,62208
2019-01-18T10:36:54.908Z,64576
2019-01-18T10:38:04.912Z,65088
2019-01-18T10:39:14.639Z,66144
2019-01-18T10:40:24.402Z,66016
2019-01-18T10:41:34.358Z,67840
2019-01-18T10:42:44.310Z,54208
2019-01-18T10:43:53.791Z,54752
2019-01-18T10:45:03.769Z,67840
2019-01-18T10:46:13.739Z,68480
2019-01-18T10:47:23.450Z,68512
2019-01-18T10:48:32.912Z,69888
2019-01-18T10:49:42.604Z,59680
2019-01-18T10:50:52.295Z,12248
2019-01-18T10:52:01.997Z,70912
2019-01-18T10:53:11.692Z,72448
2019-01-18T10:54:21.410Z,68992
2019-01-18T10:55:31.364Z,72256
2019-01-18T10:56:41.070Z,73184
2019-01-18T10:57:50.751Z,70048
2019-01-18T10:58:59.966Z,69088
2019-01-18T11:00:09.916Z,72000
2019-01-18T11:01:19.872Z,73984
2019-01-18T11:02:29.582Z,72416
2019-01-18T11:03:39.010Z,72896
2019-01-18T11:04:48.956Z,75488
2019-01-18T11:05:58.932Z,70240
2019-01-18T11:07:08.899Z,68896
2019-01-18T11:08:24.687Z,69152
2019-01-18T11:09:35.215Z,73824
2019-01-18T11:10:45.167Z,71456
2019-01-18T11:11:55.130Z,60640
2019-01-18T11:13:04.599Z,59360
2019-01-18T11:14:14.551Z,58208
2019-01-18T11:15:24.494Z,61920
2019-01-18T11:16:34.185Z,69632
2019-01-18T11:17:43.885Z,68480
2019-01-18T11:18:53.608Z,68224
2019-01-18T11:20:03.054Z,63200
2019-01-18T11:21:13.033Z,72992
2019-01-18T11:22:22.988Z,75840
2019-01-18T11:23:32.953Z,73728
2019-01-18T11:24:42.651Z,73408
2019-01-18T11:25:52.351Z,73056
2019-01-18T11:27:02.297Z,81472
2019-01-18T11:28:12.010Z,75072
2019-01-18T11:29:21.710Z,82880
2019-01-18T11:30:30.974Z,86752
2019-01-18T11:31:40.921Z,80064
2019-01-18T11:32:50.378Z,67776
2019-01-18T11:34:00.336Z,82848
2019-01-18T11:35:10.041Z,82496
2019-01-18T11:36:20.008Z,37760
2019-01-18T11:37:29.706Z,81728
2019-01-18T11:38:39.668Z,71392
2019-01-18T11:39:49.649Z,77152
2019-01-18T11:40:59.611Z,75072
2019-01-18T11:42:12.788Z,77792
2019-01-18T11:43:22.785Z,78752
2019-01-18T11:44:32.736Z,77344
2019-01-18T11:45:42.733Z,77088
2019-01-18T11:46:52.451Z,74368
2019-01-18T11:48:02.432Z,74368
2019-01-18T11:49:12.174Z,75616
2019-01-18T11:50:22.141Z,78528
2019-01-18T11:51:31.618Z,78144
2019-01-18T11:52:41.616Z,75840
2019-01-18T11:53:51.347Z,78784
2019-01-18T11:55:01.357Z,78048
2019-01-18T11:56:11.060Z,77600
2019-01-18T11:57:20.768Z,74080
2019-01-18T11:58:30.766Z,72640
2019-01-18T11:59:40.711Z,77888
2019-01-18T12:00:50.685Z,73536
2019-01-18T12:02:00.632Z,82272
2019-01-18T12:03:10.342Z,80800
2019-01-18T12:04:20.060Z,68448
2019-01-18T12:05:29.996Z,79552
2019-01-18T12:06:39.960Z,86560
2019-01-18T12:07:49.918Z,87104
2019-01-18T12:08:59.892Z,83552
2019-01-18T12:10:09.850Z,83584
2019-01-18T12:11:19.828Z,79456
2019-01-18T12:12:30.263Z,79840
2019-01-18T12:13:39.986Z,78304
2019-01-18T12:14:49.443Z,70400
2019-01-18T12:15:59.436Z,74528
2019-01-18T12:17:08.664Z,72672
2019-01-18T12:18:18.654Z,77280
2019-01-18T12:19:28.366Z,75520
2019-01-18T12:20:37.879Z,76480
2019-01-18T12:21:47.832Z,81696
2019-01-18T12:22:57.552Z,82336
2019-01-18T12:24:07.254Z,71712
2019-01-18T12:25:16.965Z,81440
2019-01-18T12:26:26.924Z,78496
2019-01-18T12:27:36.912Z,79776
2019-01-18T12:28:46.896Z,82880
2019-01-18T12:29:56.717Z,78048
2019-01-18T12:31:06.420Z,82752
2019-01-18T12:32:16.122Z,79168
2019-01-18T12:33:26.086Z,78432
2019-01-18T12:34:35.886Z,80064
2019-01-18T12:35:45.928Z,81152
2019-01-18T12:37:03.282Z,80640
2019-01-18T12:38:13.260Z,83200
2019-01-18T12:39:23.243Z,88512
2019-01-18T12:40:33.216Z,76672
2019-01-18T12:41:43.162Z,82496
2019-01-18T12:42:52.616Z,73632
2019-01-18T12:44:02.570Z,72096
2019-01-18T12:45:12.008Z,85952
2019-01-18T12:46:21.729Z,71072
2019-01-18T12:47:31.243Z,75744
2019-01-18T12:48:41.246Z,75616
2019-01-18T12:49:51.203Z,83008
2019-01-18T12:51:01.174Z,81440
2019-01-18T12:52:11.136Z,84608
2019-01-18T12:53:20.613Z,87072
2019-01-18T12:54:30.573Z,84576
2019-01-18T12:55:40.536Z,85504
2019-01-18T12:56:50.507Z,74336
2019-01-18T12:58:00.206Z,78400
2019-01-18T12:59:10.163Z,78592
2019-01-18T13:00:20.139Z,79456
2019-01-18T13:01:29.852Z,71424
2019-01-18T13:02:42.654Z,81536
2019-01-18T13:03:52.643Z,70656
2019-01-18T13:05:02.599Z,75808
2019-01-18T13:06:12.553Z,76992
2019-01-18T13:07:22.010Z,68480
2019-01-18T13:08:31.723Z,77920
2019-01-18T13:09:41.669Z,68064
2019-01-18T13:10:51.617Z,76480
2019-01-18T13:12:01.319Z,72224
2019-01-18T13:13:11.042Z,72384
2019-01-18T13:14:20.987Z,77888
2019-01-18T13:15:30.684Z,77024
2019-01-18T13:16:40.708Z,51552
2019-01-18T13:17:50.442Z,54208
2019-01-18T13:19:00.407Z,71968
2019-01-18T13:20:09.889Z,73440
2019-01-18T13:21:20.110Z,72000
2019-01-18T13:22:33.385Z,71584
2019-01-18T13:23:43.589Z,72128
2019-01-18T13:24:53.588Z,72064
2019-01-18T13:26:03.314Z,72128
2019-01-18T13:27:13.264Z,70752
2019-01-18T13:28:22.716Z,71072
2019-01-18T13:29:32.675Z,73280
2019-01-18T13:30:42.344Z,66016
2019-01-18T13:31:52.310Z,69216
2019-01-18T13:33:02.264Z,70464
2019-01-18T13:34:12.225Z,69856
2019-01-18T13:35:22.171Z,76064
2019-01-18T13:36:31.870Z,71648
2019-01-18T13:37:41.881Z,68288
2019-01-18T13:38:51.616Z,67680
2019-01-18T13:40:06.124Z,68864
2019-01-18T13:41:16.025Z,61824
2019-01-18T13:42:25.746Z,64032
2019-01-18T13:43:35.707Z,62272
2019-01-18T13:44:50.557Z,63296
2019-01-18T13:46:00.265Z,63936
2019-01-18T13:47:10.227Z,59168
2019-01-18T13:48:25.724Z,63744
2019-01-18T13:49:35.179Z,59008
2019-01-18T13:50:45.131Z,59840
2019-01-18T13:51:54.528Z,60576
2019-01-18T13:53:03.977Z,56704
2019-01-18T13:54:13.930Z,55136
2019-01-18T13:55:23.886Z,59232
2019-01-18T13:56:33.864Z,54880
2019-01-18T13:57:43.551Z,51776
2019-01-18T13:58:53.258Z,56672
2019-01-18T14:00:02.962Z,53056
2019-01-18T14:01:12.936Z,53600
2019-01-18T14:02:22.645Z,55392
2019-01-18T14:03:32.647Z,49920
2019-01-18T14:04:43.056Z,54528
2019-01-18T14:05:52.765Z,51232
2019-01-18T14:07:02.484Z,48224
2019-01-18T14:08:12.209Z,53888
2019-01-18T14:09:21.907Z,50336
2019-01-18T14:10:31.851Z,45312
2019-01-18T14:11:41.566Z,46112
2019-01-18T14:12:51.521Z,41952
2019-01-18T14:14:01.212Z,38944
2019-01-18T14:15:11.173Z,46240
2019-01-18T14:16:20.870Z,55392
2019-01-18T14:17:30.321Z,52000
2019-01-18T14:18:40.030Z,41952
2019-01-18T14:19:50.003Z,44832
2019-01-18T14:20:59.959Z,45472
2019-01-18T14:22:09.411Z,38592
2019-01-18T14:23:19.101Z,41696
2019-01-18T14:24:29.059Z,44992
2019-01-18T14:25:39.005Z,40064
2019-01-18T14:26:48.684Z,35424
2019-01-18T14:27:58.378Z,38336
2019-01-18T14:29:08.079Z,36992
2019-01-18T14:30:17.545Z,35200
2019-01-18T14:31:27.242Z,35040
2019-01-18T14:32:37.199Z,33600
2019-01-18T14:33:47.133Z,28000
2019-01-18T14:34:57.095Z,29856
2019-01-18T14:36:07.043Z,22464
2019-01-18T14:37:16.988Z,13984
2019-01-18T14:38:32.281Z,21536
2019-01-18T14:39:41.969Z,26400
2019-01-18T14:40:51.937Z,27104
2019-01-18T14:42:01.389Z,24256
2019-01-18T14:43:11.091Z,23968
2019-01-18T14:44:21.036Z,21472
2019-01-18T14:45:30.994Z,20672
2019-01-18T14:46:40.934Z,23104
2019-01-18T14:47:50.893Z,18432
2019-01-18T14:49:00.846Z,12928
2019-01-18T14:50:10.539Z,7968
2019-01-18T14:51:20.248Z,5260
2019-01-18T14:52:30.193Z,5044
2019-01-18T14:53:40.143Z,4860
2019-01-18T14:54:49.842Z,4676
2019-01-18T14:55:59.305Z,4496
2019-01-18T14:57:09.302Z,4320
2019-01-18T14:58:19.251Z,4148
2019-01-18T14:59:31.997Z,3972
2019-01-18T15:00:41.708Z,3804
2019-01-18T15:01:51.693Z,3624
2019-01-18T15:03:07.079Z,3432
2019-01-18T15:04:17.025Z,3240
2019-01-18T15:05:26.973Z,3064
2019-01-18T15:06:36.909Z,2904
2019-01-18T15:07:46.630Z,2744
2019-01-18T15:08:56.593Z,2592
2019-01-18T15:10:09.937Z,2460
2019-01-18T15:11:19.138Z,2336
2019-01-18T15:12:29.093Z,2212
2019-01-18T15:13:38.791Z,2084
2019-01-18T15:14:48.490Z,1964
2019-01-18T15:15:58.171Z,1840
2019-01-18T15:17:07.856Z,1720
2019-01-18T15:18:17.794Z,1604
2019-01-18T15:19:27.513Z,1492
2019-01-18T15:20:37.443Z,1380
2019-01-18T15:21:47.131Z,1276
2019-01-18T15:22:56.846Z,1180
2019-01-18T15:24:06.798Z,1088
2019-01-18T15:25:16.759Z,1000
2019-01-18T15:26:26.465Z,912
2019-01-18T15:27:36.401Z,832
2019-01-18T15:28:46.341Z,752
2019-01-18T15:29:56.036Z,684
2019-01-18T15:31:05.977Z,616
2019-01-18T15:32:15.678Z,552
2019-01-18T15:33:25.647Z,492
2019-01-18T15:34:35.634Z,440
2019-01-18T15:35:45.582Z,388
2019-01-18T15:36:55.046Z,340
2019-01-18T15:38:04.745Z,296
2019-01-18T15:39:14.181Z,260
2019-01-18T15:40:23.885Z,224
2019-01-18T15:41:33.349Z,192
2019-01-18T15:42:43.053Z,164
2019-01-18T15:43:54.110Z,140
2019-01-18T15:45:04.099Z,120
2019-01-18T15:46:13.296Z,100
2019-01-18T15:47:23.272Z,84
2019-01-18T15:48:33.273Z,72
2019-01-18T15:49:43.249Z,60
2019-01-18T15:50:53.194Z,48
2019-01-18T15:52:03.117Z,40
2019-01-18T15:53:12.806Z,36
2019-01-18T15:54:22.495Z,28
2019-01-18T15:55:32.189Z,20
2019-01-18T15:56:42.134Z,20
2019-01-18T15:57:52.079Z,16
2019-01-18T15:59:01.525Z,16
2019-01-18T16:00:11.455Z,12
2019-01-18T16:01:21.149Z,8
2019-01-18T16:02:31.103Z,4